Time;durP1;ratioP1;P1;durP2;ratioP2;P2;SDS_P1;SDS_P2;PMS_P1;PMS_P2;Temp;Humidity;BMP_temperature;BMP_pressure;BME280_temperature;BME280_humidity;BME280_pressure;Samples;Min_cycle;Max_cycle;Signal;HPM_P1;HPM_P2
2023/06/23 00:01:01;;;;;;;11.63;4.18;;;;;;;17.65;100.00;92708.66;4767113;30;20040;-79
2023/06/23 00:03:27;;;;;;;10.88;4.80;;;;;;;17.60;100.00;92700.88;4754586;30;20464;-78
2023/06/23 00:05:53;;;;;;;11.95;4.85;;;;;;;17.64;100.00;92698.38;4754379;30;20070;-79
2023/06/23 00:08:19;;;;;;;10.05;4.68;;;;;;;17.48;100.00;92703.47;4752149;30;20063;-78
2023/06/23 00:10:45;;;;;;;10.18;4.60;;;;;;;17.36;100.00;92701.56;4754062;30;20067;-77
2023/06/23 00:13:11;;;;;;;8.50;4.35;;;;;;;17.24;100.00;92683.72;4754789;30;20039;-77
2023/06/23 00:15:36;;;;;;;8.73;3.97;;;;;;;17.16;100.00;92684.56;4753752;30;20071;-79
2023/06/23 00:18:02;;;;;;;8.95;4.30;;;;;;;17.10;100.00;92672.63;4738833;30;20059;-79
2023/06/23 00:20:28;;;;;;;8.50;4.13;;;;;;;17.06;100.00;92672.47;4754590;30;20599;-78
2023/06/23 00:22:53;;;;;;;9.32;4.50;;;;;;;17.05;100.00;92664.88;4754233;30;20036;-78
2023/06/23 00:25:19;;;;;;;10.50;4.68;;;;;;;17.05;100.00;92660.38;4755797;30;20047;-78
2023/06/23 00:27:45;;;;;;;10.40;4.68;;;;;;;17.03;100.00;92667.06;4755283;30;20291;-79
2023/06/23 00:30:11;;;;;;;12.90;4.82;;;;;;;17.02;100.00;92662.88;4755259;30;20032;-78
2023/06/23 00:32:38;;;;;;;8.00;3.78;;;;;;;16.99;100.00;92656.34;4740077;30;20055;-79
2023/06/23 00:35:08;;;;;;;8.00;3.70;;;;;;;16.98;100.00;92654.81;4755983;30;20028;-78
2023/06/23 00:37:39;;;;;;;12.23;4.35;;;;;;;16.97;100.00;92642.69;4754956;30;20046;-79
2023/06/23 00:40:10;;;;;;;9.57;4.72;;;;;;;16.96;100.00;92646.44;4754035;30;20056;-78
2023/06/23 00:42:43;;;;;;;10.27;4.90;;;;;;;16.94;100.00;92643.31;4739796;30;20055;-79
2023/06/23 00:45:09;;;;;;;10.93;4.30;;;;;;;16.90;100.00;92633.72;4754364;30;20044;-79
2023/06/23 00:47:35;;;;;;;7.55;4.25;;;;;;;16.85;100.00;92632.81;4754489;30;20048;-78
2023/06/23 00:50:01;;;;;;;10.30;4.30;;;;;;;16.87;100.00;92643.06;4755288;30;20051;-78
2023/06/23 00:52:27;;;;;;;7.00;3.92;;;;;;;16.85;100.00;92635.44;4755327;30;20043;-79
2023/06/23 00:54:52;;;;;;;11.38;4.00;;;;;;;16.82;100.00;92630.81;4755834;30;20040;-79
2023/06/23 00:57:18;;;;;;;7.57;4.05;;;;;;;16.81;100.00;92639.06;4755370;30;20036;-79
2023/06/23 00:59:44;;;;;;;7.90;3.60;;;;;;;16.76;100.00;92629.41;4761623;30;20054;-80
2023/06/23 01:02:10;;;;;;;8.43;3.83;;;;;;;16.71;100.00;92624.31;4755670;30;20044;-79
2023/06/23 01:04:36;;;;;;;11.40;4.07;;;;;;;16.69;100.00;92626.50;4754452;30;20047;-78
2023/06/23 01:07:05;;;;;;;7.13;3.90;;;;;;;16.63;100.00;92625.13;4738906;30;20051;-79
2023/06/23 01:09:51;;;;;;;8.23;4.25;;;;;;;16.61;100.00;92619.41;4744978;30;20407;-78
2023/06/23 01:12:28;;;;;;;8.90;4.18;;;;;;;16.55;100.00;92620.66;4771564;30;20046;-79
2023/06/23 01:15:19;;;;;;;7.45;3.95;;;;;;;16.67;100.00;92620.78;4771729;30;20114;-79
2023/06/23 01:18:05;;;;;;;7.15;4.32;;;;;;;16.48;100.00;92626.44;4757156;30;20527;-79
2023/06/23 01:20:33;;;;;;;;;;;;;;;16.39;100.00;92623.06;4773654;30;20040;-79
2023/06/23 01:23:16;;;;;;;7.28;4.15;;;;;;;16.34;100.00;92625.91;4769328;30;19926;-78
2023/06/23 01:25:55;;;;;;;5.90;3.83;;;;;;;16.33;100.00;92619.09;4771657;30;20093;-79
2023/06/23 01:28:41;;;;;;;8.63;4.15;;;;;;;16.31;100.00;92624.69;4772612;30;20040;-78
2023/06/23 01:31:14;;;;;;;8.30;3.75;;;;;;;16.32;100.00;92617.53;4771532;30;20040;-78
2023/06/23 01:33:56;;;;;;;7.38;3.95;;;;;;;16.27;100.00;92615.06;4771719;30;20032;-79
2023/06/23 01:36:44;;;;;;;10.60;4.20;;;;;;;16.22;100.00;92631.88;4755120;30;20048;-78
2023/06/23 01:39:13;;;;;;;7.65;4.28;;;;;;;16.16;100.00;92625.19;4755280;30;20039;-78
2023/06/23 01:41:45;;;;;;;7.82;4.20;;;;;;;16.14;100.00;92622.09;4754371;30;20416;-79
2023/06/23 01:44:14;;;;;;;10.00;4.38;;;;;;;16.09;100.00;92612.50;4763823;30;20036;-79
2023/06/23 01:46:44;;;;;;;9.18;4.13;;;;;;;16.09;100.00;92612.50;4771970;30;20570;-78
2023/06/23 01:49:16;;;;;;;6.85;4.03;;;;;;;16.02;100.00;92610.34;4739015;30;20114;-79
2023/06/23 01:51:45;;;;;;;6.78;3.75;;;;;;;16.00;100.00;92617.03;4753280;30;20028;-79
2023/06/23 01:54:16;;;;;;;8.13;4.10;;;;;;;16.01;100.00;92619.38;4754222;30;20066;-79
2023/06/23 01:56:43;;;;;;;6.67;3.80;;;;;;;15.97;100.00;92612.41;4753660;30;20079;-78
2023/06/23 01:59:11;;;;;;;6.70;4.00;;;;;;;15.94;100.00;92613.81;4752499;30;20566;-79
2023/06/23 02:01:39;;;;;;;7.05;3.88;;;;;;;15.91;100.00;92614.41;4768958;30;20453;-78
2023/06/23 02:04:06;;;;;;;7.30;3.80;;;;;;;15.89;100.00;92607.91;4755100;30;20069;-78
2023/06/23 02:06:35;;;;;;;6.30;3.50;;;;;;;15.86;100.00;92606.66;4770112;30;20039;-79
2023/06/23 02:09:05;;;;;;;8.20;3.70;;;;;;;15.82;100.00;92611.03;4765383;30;20046;-79
2023/06/23 02:11:32;;;;;;;8.90;3.40;;;;;;;15.80;100.00;92600.00;4754095;30;20044;-78
2023/06/23 02:14:00;;;;;;;6.15;3.30;;;;;;;15.79;100.00;92606.38;4752667;30;20040;-79
2023/06/23 02:16:28;;;;;;;6.25;3.15;;;;;;;15.77;100.00;92608.56;4754427;30;20043;-78
2023/06/23 02:18:56;;;;;;;11.10;3.58;;;;;;;15.79;100.00;92601.13;4753425;30;20057;-78
2023/06/23 02:21:24;;;;;;;7.20;3.45;;;;;;;15.68;100.00;92603.28;4757115;30;20067;-79
2023/06/23 02:23:52;;;;;;;5.28;2.63;;;;;;;15.67;100.00;92593.03;4772269;30;20044;-79
2023/06/23 02:26:19;;;;;;;6.38;2.80;;;;;;;15.67;100.00;92606.22;4772301;30;20095;-79
2023/06/23 02:28:50;;;;;;;7.20;2.60;;;;;;;15.76;100.00;92607.00;4774715;30;20499;-77
2023/06/23 02:31:25;;;;;;;7.90;2.70;;;;;;;15.67;100.00;92600.94;4759437;30;20052;-78
2023/06/23 02:33:51;;;;;;;4.97;2.22;;;;;;;15.67;100.00;92600.94;4758268;30;20061;-79
2023/06/23 02:36:23;;;;;;;5.68;2.45;;;;;;;15.71;100.00;92600.03;4772556;30;20032;-79
2023/06/23 02:38:53;;;;;;;7.13;2.30;;;;;;;15.80;100.00;92603.41;4772555;30;20511;-79
2023/06/23 02:41:22;;;;;;;6.85;2.20;;;;;;;15.84;100.00;92610.72;4757523;30;20046;-78
2023/06/23 02:43:51;;;;;;;5.18;2.00;;;;;;;15.86;100.00;92619.88;4772389;30;20109;-78
2023/06/23 02:46:19;;;;;;;3.92;2.10;;;;;;;15.87;100.00;92618.78;4773373;30;20063;-79
2023/06/23 02:48:48;;;;;;;7.72;2.25;;;;;;;15.91;100.00;92609.13;4773320;30;20052;-78
2023/06/23 02:51:18;;;;;;;5.57;2.45;;;;;;;15.86;100.00;92627.78;4772268;30;20035;-78
2023/06/23 02:54:05;;;;;;;4.82;1.63;;;;;;;15.81;100.00;92626.09;4774134;30;20093;-78
2023/06/23 02:56:34;;;;;;;6.30;2.13;;;;;;;15.85;100.00;92628.09;4774551;30;20105;-79
2023/06/23 02:59:08;;;;;;;3.10;1.73;;;;;;;15.91;100.00;92624.97;4766750;30;20052;-79
2023/06/23 03:01:39;;;;;;;5.25;1.85;;;;;;;15.96;100.00;92621.38;4756322;30;20075;-79
2023/06/23 03:04:05;;;;;;;3.53;1.70;;;;;;;15.98;100.00;92625.25;4754064;30;20059;-78
2023/06/23 03:06:34;;;;;;;3.03;1.60;;;;;;;16.00;100.00;92617.78;4739139;30;20089;-78
2023/06/23 03:09:02;;;;;;;3.50;1.85;;;;;;;16.03;100.00;92630.38;4753398;30;20419;-78
2023/06/23 03:11:30;;;;;;;3.88;1.55;;;;;;;16.06;100.00;92630.84;4755902;30;20047;-78
2023/06/23 03:13:57;;;;;;;4.40;1.73;;;;;;;16.02;100.00;92636.75;4753694;30;20047;-78
2023/06/23 03:16:44;;;;;;;4.22;1.70;;;;;;;16.03;100.00;92630.38;4755072;30;20036;-78
2023/06/23 03:19:33;;;;;;;5.43;1.90;;;;;;;16.03;100.00;92635.66;4755042;30;20146;-78
2023/06/23 03:22:13;;;;;;;6.43;2.10;;;;;;;15.99;100.00;92626.81;4755627;30;20033;-78
2023/06/23 03:24:42;;;;;;;9.25;1.83;;;;;;;15.99;100.00;92631.34;4770080;30;20410;-78
2023/06/23 03:27:10;;;;;;;3.10;1.60;;;;;;;15.98;100.00;92641.09;4773484;30;20392;-78
2023/06/23 03:29:43;;;;;;;4.05;1.70;;;;;;;15.97;100.00;92634.28;4773777;30;20096;-78
2023/06/23 03:32:12;;;;;;;5.50;1.98;;;;;;;15.96;100.00;92642.50;4764543;30;20487;-78
2023/06/23 03:34:43;;;;;;;3.53;1.60;;;;;;;15.97;100.00;92639.56;4754504;30;20112;-78
2023/06/23 03:37:12;;;;;;;6.05;1.90;;;;;;;16.00;100.00;92638.16;4753134;30;20044;-77
2023/06/23 03:39:42;;;;;;;3.92;1.63;;;;;;;16.05;100.00;92645.13;4754312;30;20047;-78
2023/06/23 03:42:08;;;;;;;3.63;1.73;;;;;;;16.13;100.00;92646.97;4755159;30;20123;-78
2023/06/23 03:44:42;;;;;;;3.92;1.70;;;;;;;16.23;100.00;92636.03;4755244;30;20040;-78
2023/06/23 03:47:20;;;;;;;4.60;2.03;;;;;;;16.25;100.00;92628.59;4754950;30;20036;-78
2023/06/23 03:50:02;;;;;;;4.93;2.85;;;;;;;16.26;100.00;92630.16;4754799;30;20603;-78
2023/06/23 03:52:29;;;;;;;4.80;1.85;;;;;;;16.24;100.00;92627.81;4754778;30;20036;-78
2023/06/23 03:54:56;;;;;;;5.03;1.85;;;;;;;16.22;100.00;92627.34;4754385;30;20522;-78
2023/06/23 03:57:26;;;;;;;9.13;1.90;;;;;;;16.17;100.00;92632.06;4755926;30;20051;-78
2023/06/23 03:59:54;;;;;;;5.65;2.13;;;;;;;16.13;100.00;92621.34;4755264;30;20510;-78
2023/06/23 04:02:22;;;;;;;10.45;2.25;;;;;;;16.06;100.00;92626.34;4754881;30;20041;-78
2023/06/23 04:04:52;;;;;;;5.72;1.88;;;;;;;15.99;100.00;92621.53;4754376;30;20044;-78
2023/06/23 04:07:21;;;;;;;5.65;2.10;;;;;;;15.97;100.00;92623.72;4754395;30;20036;-77
2023/06/23 04:09:50;;;;;;;5.72;1.92;;;;;;;15.98;100.00;92627.13;4760942;30;20035;-78
2023/06/23 04:12:18;;;;;;;4.18;1.80;;;;;;;15.99;100.00;92626.81;4770994;30;20042;-78
2023/06/23 04:14:47;;;;;;;4.38;2.00;;;;;;;16.01;100.00;92635.22;4770358;30;20039;-77
2023/06/23 04:17:15;;;;;;;3.35;1.60;;;;;;;16.02;100.00;92633.34;4770851;30;20047;-78
2023/06/23 04:19:44;;;;;;;3.55;1.30;;;;;;;16.17;100.00;92626.78;4771872;30;20121;-78
2023/06/23 04:22:14;;;;;;;3.58;1.70;;;;;;;16.61;100.00;92640.53;4771400;30;20044;-78
2023/06/23 04:24:40;;;;;;;2.75;1.38;;;;;;;16.68;100.00;92646.09;4771538;30;20047;-78
2023/06/23 04:27:09;;;;;;;4.75;1.58;;;;;;;16.79;100.00;92641.22;4772309;30;20432;-78
2023/06/23 04:29:37;;;;;;;4.05;1.60;;;;;;;16.78;100.00;92648.38;4757492;30;20032;-78
2023/06/23 04:32:03;;;;;;;4.00;1.60;;;;;;;16.84;100.00;92648.97;4756098;30;20047;-79
2023/06/23 04:34:29;;;;;;;5.32;1.70;;;;;;;16.85;100.00;92647.91;4738613;30;20048;-77
2023/06/23 04:37:06;;;;;;;2.88;1.42;;;;;;;16.97;100.00;92655.13;4754249;30;20036;-79
2023/06/23 04:39:45;;;;;;;4.07;1.50;;;;;;;17.01;100.00;92658.69;4754766;30;20113;-79
2023/06/23 04:42:13;;;;;;;4.15;1.67;;;;;;;16.97;100.00;92668.34;4753956;30;20040;-79
2023/06/23 04:44:47;;;;;;;2.90;1.40;;;;;;;16.93;100.00;92668.22;4754014;30;20641;-78
2023/06/23 04:47:17;;;;;;;2.40;1.27;;;;;;;16.87;100.00;92669.50;4752302;30;20525;-78
2023/06/23 04:49:45;;;;;;;3.90;1.50;;;;;;;16.82;100.00;92670.47;4754722;30;20027;-79
2023/06/23 04:52:14;;;;;;;3.35;1.50;;;;;;;16.77;100.00;92662.66;4754682;30;20040;-79
2023/06/23 04:54:44;;;;;;;2.97;1.65;;;;;;;16.78;100.00;92671.41;4753095;30;20094;-79
2023/06/23 04:57:14;;;;;;;2.85;1.50;;;;;;;16.75;100.00;92670.16;4755602;30;20040;-78
2023/06/23 04:59:43;;;;;;;2.95;1.48;;;;;;;16.67;100.00;92665.69;4753938;30;20044;-78
2023/06/23 05:02:12;;;;;;;3.13;1.40;;;;;;;16.63;100.00;92670.06;4753835;30;20032;-78
2023/06/23 05:04:39;;;;;;;2.60;1.40;;;;;;;16.62;100.00;92673.81;4754373;30;20042;-78
2023/06/23 05:07:06;;;;;;;2.00;1.20;;;;;;;16.63;100.00;92672.72;4753366;30;20043;-79
2023/06/23 05:09:34;;;;;;;3.05;1.13;;;;;;;16.64;100.00;92682.19;4754022;30;20039;-78
2023/06/23 05:12:03;;;;;;;3.10;1.48;;;;;;;16.66;100.00;92687.91;4757328;30;20035;-78
2023/06/23 05:14:30;;;;;;;2.40;1.33;;;;;;;16.69;100.00;92689.94;4772531;30;20054;-79
2023/06/23 05:16:58;;;;;;;2.40;1.30;;;;;;;16.72;100.00;92689.28;4771588;30;20035;-77
2023/06/23 05:19:28;;;;;;;4.90;1.40;;;;;;;16.72;100.00;92699.88;4771440;30;20093;-79
2023/06/23 05:21:57;;;;;;;2.72;1.30;;;;;;;16.77;100.00;92697.03;4771659;30;20052;-77
2023/06/23 05:24:27;;;;;;;3.25;1.48;;;;;;;16.80;100.00;92700.97;4755888;30;20043;-77
2023/06/23 05:26:57;;;;;;;3.30;1.35;;;;;;;16.85;100.00;92698.91;4754040;30;20127;-79
2023/06/23 05:29:24;;;;;;;2.83;1.30;;;;;;;16.91;100.00;92698.72;4753691;30;20408;-79
2023/06/23 05:31:51;;;;;;;3.40;1.30;;;;;;;16.97;100.00;92702.72;4754216;30;20078;-79
2023/06/23 05:34:18;;;;;;;2.78;1.35;;;;;;;17.04;100.00;92716.22;4761299;30;20118;-79
2023/06/23 05:36:46;;;;;;;3.05;1.35;;;;;;;17.09;100.00;92713.41;4771459;30;20039;-78
2023/06/23 05:39:16;;;;;;;2.75;1.20;;;;;;;17.14;100.00;92713.22;4770917;30;20071;-76
2023/06/23 05:41:42;;;;;;;2.50;1.30;;;;;;;17.18;100.00;92718.63;4761334;30;20044;-78
2023/06/23 05:44:07;;;;;;;2.05;1.13;;;;;;;17.20;100.00;92713.78;4758643;30;20054;-78
2023/06/23 05:46:36;;;;;;;2.47;1.40;;;;;;;17.25;100.00;92717.03;4755381;30;20096;-78
2023/06/23 05:49:08;;;;;;;3.97;1.27;;;;;;;17.28;100.00;92726.19;4771358;30;20035;-79
2023/06/23 05:51:35;;;;;;;5.68;1.30;;;;;;;17.33;100.00;92723.34;4755035;30;20454;-79
2023/06/23 05:54:08;;;;;;;3.28;1.50;;;;;;;17.41;100.00;92737.63;4753054;30;20040;-78
2023/06/23 05:56:48;;;;;;;2.85;1.45;;;;;;;17.48;100.00;92729.94;4753751;30;20552;-78
2023/06/23 05:59:22;;;;;;;2.40;1.20;;;;;;;17.57;100.00;92732.53;4754963;30;20572;-79
2023/06/23 06:01:52;;;;;;;4.13;1.30;;;;;;;17.62;100.00;92729.69;4757114;30;20121;-78
2023/06/23 06:04:23;;;;;;;3.85;1.45;;;;;;;17.66;100.00;92731.34;4756694;30;20093;-78
2023/06/23 06:06:52;;;;;;;2.65;1.00;;;;;;;17.75;100.00;92739.25;4757770;30;20047;-79
2023/06/23 06:09:19;;;;;;;2.65;1.33;;;;;;;17.94;100.00;92741.44;4757990;30;20082;-79
2023/06/23 06:11:46;;;;;;;2.85;1.33;;;;;;;18.13;100.00;92742.84;4757512;30;20130;-78
2023/06/23 06:14:15;;;;;;;2.35;1.05;;;;;;;18.25;100.00;92745.53;4757306;30;20435;-79
2023/06/23 06:16:42;;;;;;;2.13;1.00;;;;;;;18.26;100.00;92741.75;4757111;30;20040;-79
2023/06/23 06:19:08;;;;;;;2.17;0.90;;;;;;;18.33;100.00;92743.88;4768908;30;20128;-78
2023/06/23 06:21:37;;;;;;;4.05;1.00;;;;;;;18.46;100.00;92746.25;4773021;30;20123;-78
2023/06/23 06:24:04;;;;;;;7.60;1.20;;;;;;;18.54;100.00;92739.28;4774475;30;20040;-79
2023/06/23 06:26:30;;;;;;;2.30;0.80;;;;;;;18.64;100.00;92730.13;4773155;30;20043;-78
2023/06/23 06:28:58;;;;;;;2.28;1.10;;;;;;;18.86;100.00;92743.00;4764911;30;20424;-78
2023/06/23 06:31:26;;;;;;;2.75;1.10;;;;;;;19.62;100.00;92751.34;4756997;30;20059;-79
2023/06/23 06:33:55;;;;;;;2.15;1.00;;;;;;;20.13;97.13;92749.00;4757404;30;20028;-79
2023/06/23 06:36:23;;;;;;;3.22;1.00;;;;;;;20.66;100.00;92751.50;4769255;30;20039;-79
2023/06/23 06:38:51;;;;;;;2.65;0.70;;;;;;;20.90;95.59;92747.16;4774107;30;20044;-79
2023/06/23 06:41:17;;;;;;;3.15;0.90;;;;;;;21.54;88.42;92753.19;4775343;30;20495;-79
2023/06/23 06:43:44;;;;;;;1.05;0.80;;;;;;;22.08;83.42;92754.28;4775582;30;20044;-79
2023/06/23 06:46:11;;;;;;;1.38;0.80;;;;;;;22.58;78.65;92758.66;4774378;30;20039;-79
2023/06/23 06:48:39;;;;;;;1.45;1.10;;;;;;;22.99;77.89;92761.69;4762768;30;20093;-80
2023/06/23 06:51:06;;;;;;;1.88;1.08;;;;;;;23.17;71.60;92761.19;4757576;30;20036;-79
2023/06/23 06:53:32;;;;;;;2.08;0.90;;;;;;;23.55;67.43;92767.47;4756238;30;20048;-78
2023/06/23 06:55:59;;;;;;;1.17;0.77;;;;;;;23.98;67.00;92768.06;4757017;30;20385;-79
2023/06/23 06:58:25;;;;;;;1.05;0.70;;;;;;;24.17;61.08;92759.91;4767354;30;20105;-79
2023/06/23 07:00:53;;;;;;;1.25;0.80;;;;;;;24.06;59.29;92757.09;4757696;30;20051;-79
2023/06/23 07:03:20;;;;;;;3.10;0.90;;;;;;;24.36;57.85;92760.88;4756446;30;20044;-79
2023/06/23 07:05:45;;;;;;;3.45;1.10;;;;;;;24.60;55.14;92760.41;4754756;30;20075;-78
2023/06/23 07:08:11;;;;;;;2.28;0.70;;;;;;;24.70;56.73;92762.44;4744434;30;20054;-77
2023/06/23 07:10:38;;;;;;;2.70;0.95;;;;;;;24.78;57.16;92765.94;4754862;30;20047;-78
2023/06/23 07:13:03;;;;;;;2.33;1.02;;;;;;;24.94;54.66;92763.00;4756091;30;20545;-77
2023/06/23 07:15:30;;;;;;;4.85;1.00;;;;;;;25.08;57.05;92768.50;4755808;30;20052;-79
2023/06/23 07:17:55;;;;;;;1.95;1.00;;;;;;;25.26;56.13;92763.28;4756155;30;20068;-79
2023/06/23 07:20:21;;;;;;;2.17;0.93;;;;;;;25.51;55.12;92760.03;4756861;30;20451;-77
2023/06/23 07:22:47;;;;;;;1.20;0.88;;;;;;;25.41;53.82;92756.13;4754376;30;20044;-77
2023/06/23 07:25:12;;;;;;;2.38;1.05;;;;;;;25.52;55.23;92754.28;4756244;30;20032;-79
2023/06/23 07:27:38;;;;;;;3.70;1.30;;;;;;;25.55;53.54;92753.53;4771863;30;20115;-77
2023/06/23 07:30:04;;;;;;;3.28;1.02;;;;;;;25.65;53.06;92751.31;4762494;30;20063;-77
2023/06/23 07:32:30;;;;;;;2.25;1.10;;;;;;;25.82;52.85;92756.00;4756053;30;20052;-78
2023/06/23 07:34:56;;;;;;;3.33;1.00;;;;;;;25.77;50.68;92764.41;4755174;30;20048;-78
2023/06/23 07:37:22;;;;;;;3.72;1.02;;;;;;;25.76;52.63;92762.88;4755706;30;20044;-79
2023/06/23 07:39:47;;;;;;;1.58;1.10;;;;;;;25.81;51.61;92767.88;4755152;30;20039;-77
2023/06/23 07:42:13;;;;;;;2.72;1.00;;;;;;;25.98;52.53;92763.75;4739506;30;20101;-79
2023/06/23 07:44:39;;;;;;;2.72;1.10;;;;;;;26.18;52.00;92761.56;4756707;30;20071;-79
2023/06/23 07:47:05;;;;;;;1.70;1.08;;;;;;;26.30;50.63;92760.44;4759577;30;20043;-79
2023/06/23 07:49:31;;;;;;;1.83;1.00;;;;;;;26.24;48.60;92765.41;4774064;30;20703;-79
2023/06/23 07:52:00;;;;;;;2.25;1.20;;;;;;;25.88;48.25;92764.50;4757647;30;20163;-78
2023/06/23 07:54:29;;;;;;;2.20;1.20;;;;;;;26.12;48.50;92774.56;4756667;30;20135;-78
2023/06/23 07:56:55;;;;;;;1.58;1.02;;;;;;;25.80;48.55;92777.03;4739755;30;20044;-79
2023/06/23 07:59:21;;;;;;;2.15;1.25;;;;;;;25.68;50.48;92767.41;4755029;30;20060;-78
2023/06/23 08:01:46;;;;;;;1.80;1.02;;;;;;;25.74;52.50;92767.84;4757071;30;20093;-79
2023/06/23 08:04:12;;;;;;;2.05;1.20;;;;;;;25.73;51.14;92772.41;4755210;30;20048;-79
2023/06/23 08:06:38;;;;;;;2.47;1.20;;;;;;;24.88;50.40;92761.81;4754952;30;20055;-79
2023/06/23 08:09:04;;;;;;;2.45;1.40;;;;;;;25.05;51.82;92763.09;4738916;30;20089;-78
2023/06/23 08:11:30;;;;;;;2.05;1.23;;;;;;;25.25;50.80;92764.44;4756741;30;20051;-79
2023/06/23 08:13:56;;;;;;;2.28;1.30;;;;;;;25.44;52.28;92758.06;4755746;30;20099;-78
2023/06/23 08:16:22;;;;;;;3.08;1.30;;;;;;;25.54;51.02;92762.72;4757112;30;20055;-79
2023/06/23 08:18:47;;;;;;;2.35;1.35;;;;;;;25.10;48.12;92776.91;4757410;30;20056;-79
2023/06/23 08:21:14;;;;;;;2.40;1.40;;;;;;;24.93;50.23;92767.59;4773786;30;20043;-79
2023/06/23 08:23:41;;;;;;;2.72;1.40;;;;;;;25.20;55.88;92764.78;4755556;30;20444;-78
2023/06/23 08:26:07;;;;;;;2.53;1.50;;;;;;;25.38;52.95;92756.88;4754063;30;20510;-79
2023/06/23 08:28:33;;;;;;;5.55;1.42;;;;;;;25.60;51.81;92765.06;4755959;30;20044;-78
2023/06/23 08:30:58;;;;;;;2.72;1.58;;;;;;;25.51;49.67;92762.69;4754536;30;20032;-79
2023/06/23 08:33:24;;;;;;;6.75;1.73;;;;;;;25.40;50.25;92767.22;4755861;30;20047;-78
2023/06/23 08:35:49;;;;;;;2.35;1.48;;;;;;;25.57;49.15;92761.22;4755897;30;20036;-78
2023/06/23 08:38:16;;;;;;;3.50;1.88;;;;;;;25.69;51.72;92760.13;4754173;30;20392;-78
2023/06/23 08:40:42;;;;;;;3.17;1.60;;;;;;;25.91;51.43;92774.47;4756110;30;20044;-78
2023/06/23 08:43:11;;;;;;;3.00;1.65;;;;;;;25.69;50.37;92768.16;4755832;30;20051;-78
2023/06/23 08:45:42;;;;;;;3.95;1.60;;;;;;;25.70;49.33;92764.38;4754874;30;20048;-79
2023/06/23 08:48:11;;;;;;;3.72;1.80;;;;;;;24.96;48.20;92774.13;4754356;30;20032;-79
2023/06/23 08:50:37;;;;;;;5.30;2.05;;;;;;;25.05;51.49;92779.16;4754960;30;20519;-79
2023/06/23 08:53:05;;;;;;;4.05;2.00;;;;;;;25.08;47.23;92768.50;4754712;30;20502;-78
2023/06/23 08:55:34;;;;;;;4.45;2.03;;;;;;;25.19;48.23;92773.97;4772966;30;20073;-79
2023/06/23 08:58:03;;;;;;;4.88;2.30;;;;;;;24.90;48.01;92788.97;4757177;30;20400;-79
2023/06/23 09:00:28;;;;;;;3.95;2.15;;;;;;;25.05;48.83;92782.63;4771828;30;20044;-79
2023/06/23 09:02:57;;;;;;;4.57;2.20;;;;;;;25.26;47.29;92778.59;4757605;30;20046;-78
2023/06/23 09:05:23;;;;;;;4.07;2.08;;;;;;;24.91;46.60;92779.81;4771555;30;20028;-79
2023/06/23 09:07:49;;;;;;;4.65;2.35;;;;;;;25.19;48.98;92775.88;4773037;30;20516;-79
2023/06/23 09:10:17;;;;;;;4.30;2.03;;;;;;;25.62;49.87;92786.91;4757458;30;20040;-78
2023/06/23 09:12:59;;;;;;;4.90;2.38;;;;;;;25.93;46.47;92780.22;4757603;30;20110;-79
2023/06/23 09:15:26;;;;;;;4.63;2.55;;;;;;;26.21;47.43;92782.28;4773286;30;20065;-79
2023/06/23 09:17:52;;;;;;;5.07;2.40;;;;;;;26.03;43.11;92789.44;4772808;30;20064;-78
2023/06/23 09:20:17;;;;;;;5.85;2.70;;;;;;;25.95;46.14;92788.66;4773428;30;20055;-78
2023/06/23 09:22:44;;;;;;;5.75;2.45;;;;;;;26.18;46.22;92775.72;4773666;30;20070;-79
2023/06/23 09:25:10;;;;;;;4.22;2.40;;;;;;;25.95;45.22;92786.75;4771547;30;20040;-79
2023/06/23 09:27:40;;;;;;;4.28;2.25;;;;;;;25.86;42.88;92796.25;4773541;30;20108;-80
2023/06/23 09:30:07;;;;;;;4.20;2.42;;;;;;;26.13;44.20;92786.06;4765117;30;20056;-79
2023/06/23 09:32:32;;;;;;;3.78;2.33;;;;;;;25.91;44.77;92783.28;4765683;30;20047;-79
2023/06/23 09:34:58;;;;;;;5.25;2.38;;;;;;;26.17;47.41;92792.22;4772108;30;20039;-79
2023/06/23 09:37:24;;;;;;;5.68;2.65;;;;;;;26.23;41.56;92784.56;4771837;30;20056;-80
2023/06/23 09:39:54;;;;;;;4.53;2.80;;;;;;;25.99;47.02;92773.38;4772542;30;20042;-80
2023/06/23 09:42:24;;;;;;;5.70;3.10;;;;;;;26.22;43.31;92791.84;4771758;30;20075;-79
2023/06/23 09:44:50;;;;;;;5.93;3.00;;;;;;;26.43;43.72;92793.09;4772714;30;20054;-79
2023/06/23 09:47:17;;;;;;;6.35;2.72;;;;;;;26.08;41.66;92795.25;4772147;30;20491;-79
2023/06/23 09:49:45;;;;;;;6.20;3.17;;;;;;;26.04;45.67;92782.97;4773479;30;20047;-79
2023/06/23 09:52:13;;;;;;;8.90;3.50;;;;;;;26.06;48.94;92791.41;4773450;30;20032;-79
2023/06/23 09:54:40;;;;;;;5.20;3.08;;;;;;;26.35;42.86;92792.31;4765290;30;20065;-79
2023/06/23 09:57:13;;;;;;;5.88;3.10;;;;;;;26.24;42.02;92773.47;4754716;30;20104;-80
2023/06/23 09:59:40;;;;;;;5.20;3.03;;;;;;;26.47;46.37;92773.16;4754306;30;20051;-80
2023/06/23 10:02:19;;;;;;;4.82;2.88;;;;;;;26.72;45.19;92788.59;4754239;30;20044;-80
2023/06/23 10:04:47;;;;;;;8.32;3.30;;;;;;;26.91;41.30;92790.19;4756099;30;20052;-79
2023/06/23 10:07:20;;;;;;;5.15;3.00;;;;;;;26.94;42.64;92787.50;4765043;30;20032;-79
2023/06/23 10:09:53;;;;;;;4.93;3.00;;;;;;;27.13;42.13;92785.59;4773468;30;20047;-79
2023/06/23 10:12:22;;;;;;;6.10;3.20;;;;;;;27.15;39.09;92788.66;4772430;30;20072;-79
2023/06/23 10:14:51;;;;;;;5.97;3.05;;;;;;;27.12;37.63;92789.44;4774058;30;20098;-78
2023/06/23 10:17:17;;;;;;;5.40;3.03;;;;;;;27.19;39.05;92784.06;4757196;30;20070;-79
2023/06/23 10:19:44;;;;;;;5.80;3.20;;;;;;;27.13;39.85;92777.53;4766909;30;20412;-79
2023/06/23 10:22:13;;;;;;;7.20;3.20;;;;;;;27.25;41.04;92781.81;4754735;30;20041;-78
2023/06/23 10:24:39;;;;;;;8.65;3.47;;;;;;;27.39;43.18;92792.53;4756038;30;20040;-79
2023/06/23 10:27:05;;;;;;;6.10;3.22;;;;;;;27.42;43.20;92794.44;4754156;30;20048;-79
2023/06/23 10:29:34;;;;;;;5.13;3.15;;;;;;;27.46;37.57;92783.72;4739489;30;20112;-78
2023/06/23 10:32:02;;;;;;;6.00;3.22;;;;;;;27.30;39.69;92784.88;4758993;30;20047;-79
2023/06/23 10:34:28;;;;;;;5.65;3.47;;;;;;;27.37;40.10;92784.84;4771178;30;20054;-78
2023/06/23 10:36:57;;;;;;;5.50;3.40;;;;;;;27.44;40.36;92786.78;4773107;30;20051;-79
2023/06/23 10:39:26;;;;;;;5.47;3.38;;;;;;;27.61;39.71;92788.69;4773061;30;20474;-79
2023/06/23 10:41:53;;;;;;;6.05;3.63;;;;;;;27.76;38.98;92785.97;4750032;30;20070;-78
2023/06/23 10:44:19;;;;;;;9.60;3.92;;;;;;;27.62;39.04;92787.53;4757920;30;20501;-78
2023/06/23 10:46:46;;;;;;;5.70;3.67;;;;;;;27.76;37.60;92775.22;4776586;30;20044;-79
2023/06/23 10:49:12;;;;;;;5.80;3.75;;;;;;;27.80;40.13;92768.66;4776315;30;20529;-79
2023/06/23 10:51:38;;;;;;;5.75;3.42;;;;;;;27.47;37.09;92761.03;4775042;30;20035;-79
2023/06/23 10:54:07;;;;;;;6.72;4.10;;;;;;;27.50;39.85;92779.88;4774283;30;20068;-79
2023/06/23 10:56:33;;;;;;;5.75;3.78;;;;;;;27.62;35.99;92776.75;4772866;30;20062;-78
2023/06/23 10:58:58;;;;;;;8.18;3.42;;;;;;;27.66;37.05;92770.63;4762266;30;20039;-79
2023/06/23 11:01:26;;;;;;;6.50;3.78;;;;;;;27.85;35.65;92769.47;4775406;30;20035;-79
2023/06/23 11:03:56;;;;;;;6.80;3.90;;;;;;;27.78;38.57;92775.59;4776090;30;20120;-79
2023/06/23 11:06:34;;;;;;;6.05;4.03;;;;;;;27.92;37.93;92783.69;4776308;30;20050;-78
2023/06/23 11:09:01;;;;;;;5.93;3.95;;;;;;;27.66;34.11;92779.47;4774498;30;20039;-79
2023/06/23 11:11:34;;;;;;;5.88;3.65;;;;;;;27.61;38.00;92794.06;4774155;30;20032;-79
2023/06/23 11:14:00;;;;;;;6.05;3.85;;;;;;;27.38;39.82;92780.25;4774127;30;20039;-79
2023/06/23 11:16:38;;;;;;;6.03;3.50;;;;;;;27.53;38.08;92765.63;4775258;30;20083;-79
2023/06/23 11:19:05;;;;;;;7.20;3.78;;;;;;;27.54;37.40;92782.56;4775559;30;20060;-79
2023/06/23 11:21:33;;;;;;;6.40;3.63;;;;;;;27.56;38.47;92797.16;4775197;30;20047;-78
2023/06/23 11:24:25;;;;;;;6.07;4.03;;;;;;;27.59;36.21;92792.91;4774844;30;20513;-78
2023/06/23 11:26:53;;;;;;;6.70;4.28;;;;;;;27.68;37.99;92792.53;4766135;30;20147;-79
2023/06/23 11:29:21;;;;;;;6.63;3.53;;;;;;;27.82;36.42;92781.75;4774371;30;20052;-79
2023/06/23 11:32:06;;;;;;;6.85;3.90;;;;;;;27.68;36.00;92792.53;4774844;30;20073;-79
2023/06/23 11:35:01;;;;;;;9.00;4.03;;;;;;;27.92;36.87;92782.88;4773999;30;20515;-79
2023/06/23 11:37:32;;;;;;;5.93;3.60;;;;;;;27.55;34.89;92797.53;4773703;30;20039;-78